Avoca, IA

5:10 AM CST on March 03, 2015 (GMT -0600)
IADOT Avoca (I-80) | Change Station
CLOSE
Current Station
Personal Weather Station
Location: Avoca, IA
Elevation: 1240 ft
Nearby Weather Stations

Elev 1240 ft 41.50 °N, 95.29 °W | Updated 50 minutes ago

Overcast
Overcast
30 °F
Feels Like 20 °F
N
13
Wind Variable Wind from South
Gusts 18.0 mph

Today
High -- | Low -- °F
--% Chance of Precip.
Yesterday
High -- | Low -- °F
Precip. -- in
6:53 AM 6:14 PM
Waxing Gibbous, 95% visible
Pressure 29.71 in
Visibility 8.0 miles
Clouds Overcast 900 ft
Windchill 20 °F
Dew Point 26 °F
Humidity 84%
Rainfall -999.00 in
Snow Depth Not available.
UV 0 out of 12
Pollen 2.10 out of 12
Air Quality Not available.
Flu Activity Not available.
METAR KHNR 031055Z AUTO 18012KT 8SM OVC009 M01/M01 A2971 RMK AO2

More Conditions Fewer Conditions

Pressure 29.71 in
Visibility 8.0 miles
Clouds Overcast 900 ft
Windchill 20 °F
Dew Point 26 °F
Humidity 84%
Rainfall -999.00 in
Snow Depth Not available.
UV 0 out of 12
Pollen 2.10 out of 12
Air Quality Not available.
Flu Activity Not available.
METAR KHNR 031055Z AUTO 18012KT 8SM OVC009 M01/M01 A2971 RMK AO2

More Conditions Fewer Conditions

Nowcast | as of 3:47 am CST on March 3, 2015

Areas of drizzle could develop this morning across much of the region. Temperatures will remain from 30 to 32 degrees...thus untreated roads...bridges and overpasses and sidewalks could become a slick in some areas especially where temperatures will be just below freezing.

×

10-Day Weather Forecast

Almanac

Astronomy

Mar. 03, 2015 Rise Set
Actual Time
Civil Twilight
Nautical Twilight
Astronomical Twilight
Moon
Length of Visible Light
Length of Day
Tomorrow will be .
, % of the Moon is Illuminated

Today's Extremes

State Highs State Lows

Community

WunderPhotos

Upload Photos

1,802,087 photos uploaded!

WunderBlogs® & News

Nearby

Air Quality

  Air Quality AQ Index Pollutant
Not available.

Snow Depth

Station Depth Elevation

Earthquake Activity

City Distance Mag. Time & Date
Minimum magnitude displayed is 2.5.

Coastal Water Temperatures

Place Temperature

Nearby Weather Stations